Time;durP1;ratioP1;P1;durP2;ratioP2;P2;SDS_P1;SDS_P2;PMS_P1;PMS_P2;Temp;Humidity;BMP_temperature;BMP_pressure;BME280_temperature;BME280_humidity;BME280_pressure;Samples;Min_cycle;Max_cycle;Signal;HPM_P1;HPM_P2
2023/01/28 00:02:23;;;;;;;9.53;4.00;;;23.70;38.30;;;;;;5067307;28;20221;-68
2023/01/28 00:04:50;;;;;;;8.73;3.70;;;23.70;38.30;;;;;;5063610;28;20265;-67
2023/01/28 00:07:18;;;;;;;9.47;3.80;;;23.80;38.40;;;;;;5068903;28;20294;-67
2023/01/28 00:09:44;;;;;;;12.37;4.73;;;23.80;38.30;;;;;;5067406;28;20214;-67
2023/01/28 00:12:11;;;;;;;8.40;3.80;;;23.70;38.20;;;;;;5069509;28;20194;-72
2023/01/28 00:14:39;;;;;;;11.33;4.53;;;23.70;38.80;;;;;;5065643;28;20667;-68
2023/01/28 00:17:06;;;;;;;7.77;3.57;;;23.70;38.20;;;;;;5069107;28;20195;-74
2023/01/28 00:19:33;;;;;;;18.27;6.30;;;23.80;38.30;;;;;;5057407;28;20203;-77
2023/01/28 00:22:01;;;;;;;9.57;3.90;;;23.80;38.30;;;;;;5063959;28;20219;-67
2023/01/28 00:24:28;;;;;;;7.57;3.63;;;23.80;38.30;;;;;;5067492;28;20667;-70
2023/01/28 00:26:54;;;;;;;8.63;3.70;;;23.80;38.30;;;;;;5069048;28;20913;-68
2023/01/28 00:29:21;;;;;;;8.27;3.60;;;23.70;38.20;;;;;;5069149;28;20640;-73
2023/01/28 00:31:50;;;;;;;12.97;4.93;;;23.80;38.30;;;;;;5067351;28;20199;-71
2023/01/28 00:34:17;;;;;;;8.93;3.77;;;23.70;38.10;;;;;;5060598;28;20211;-70
2023/01/28 00:36:44;;;;;;;12.07;4.47;;;23.80;38.20;;;;;;5062270;28;20199;-68
2023/01/28 00:39:14;;;;;;;8.90;4.00;;;23.70;38.10;;;;;;5057154;28;20226;-71
2023/01/28 00:41:41;;;;;;;6.70;3.03;;;23.80;38.20;;;;;;5054300;28;20203;-78
2023/01/28 00:44:08;;;;;;;7.43;3.50;;;23.80;38.20;;;;;;5068701;28;20245;-75
2023/01/28 00:46:35;;;;;;;7.87;3.43;;;23.80;38.20;;;;;;5068518;28;20195;-79
2023/01/28 00:49:04;;;;;;;9.07;3.97;;;23.70;38.10;;;;;;5068795;28;20211;-74
2023/01/28 00:51:31;;;;;;;8.37;3.50;;;23.80;38.20;;;;;;5068692;28;20660;-66
2023/01/28 00:53:57;;;;;;;8.17;3.60;;;23.80;38.20;;;;;;5068346;28;20650;-67
2023/01/28 00:56:25;;;;;;;19.03;6.60;;;23.70;38.10;;;;;;5060530;28;20574;-66
2023/01/28 00:58:53;;;;;;;7.90;3.50;;;23.80;38.20;;;;;;5066053;28;20314;-67
2023/01/28 01:01:22;;;;;;;9.57;3.77;;;23.80;38.20;;;;;;5061484;28;20202;-66
2023/01/28 01:03:56;;;;;;;14.37;5.33;;;23.70;38.10;;;;;;5053549;28;20215;-67
2023/01/28 01:06:25;;;;;;;19.43;6.60;;;23.80;38.20;;;;;;5062558;28;20199;-71
2023/01/28 01:08:52;;;;;;;13.00;5.10;;;23.70;38.00;;;;;;5061431;28;20639;-68
2023/01/28 01:11:19;;;;;;;11.00;4.33;;;23.70;38.00;;;;;;5063824;28;20271;-67
2023/01/28 01:13:51;;;;;;;14.83;5.47;;;23.80;38.70;;;;;;5066913;28;20315;-67
2023/01/28 01:16:18;;;;;;;5.77;2.83;;;23.70;38.00;;;;;;5066859;28;20212;-67
2023/01/28 01:18:45;;;;;;;13.03;5.00;;;23.80;38.20;;;;;;5065085;28;20203;-68
2023/01/28 01:21:14;;;;;;;13.57;5.13;;;23.70;38.00;;;;;;5059629;28;20717;-67
2023/01/28 01:23:43;;;;;;;7.53;3.20;;;23.80;38.10;;;;;;5058907;28;20209;-67
2023/01/28 01:26:10;;;;;;;8.83;3.67;;;23.80;38.10;;;;;;5064459;28;20195;-67
2023/01/28 01:28:37;;;;;;;7.10;3.30;;;23.70;38.00;;;;;;5063218;28;20783;-69
2023/01/28 01:31:07;;;;;;;8.80;3.70;;;23.70;38.00;;;;;;5065159;28;20203;-67
2023/01/28 01:33:34;;;;;;;16.03;5.70;;;23.70;38.00;;;;;;5065592;28;20195;-67
2023/01/28 01:36:01;;;;;;;10.40;4.27;;;23.70;38.00;;;;;;5066349;28;20199;-67
2023/01/28 01:38:29;;;;;;;12.67;4.63;;;23.70;38.00;;;;;;5064749;28;20278;-67
2023/01/28 01:41:01;;;;;;;9.70;3.77;;;23.70;38.00;;;;;;5066103;28;20652;-67
2023/01/28 01:43:47;;;;;;;14.00;5.30;;;23.70;38.00;;;;;;5065066;28;20318;-68
2023/01/28 01:46:16;;;;;;;10.93;4.20;;;23.70;38.00;;;;;;5064535;28;20203;-67
2023/01/28 01:48:43;;;;;;;7.30;3.40;;;23.70;38.00;;;;;;5066975;28;20202;-75
2023/01/28 01:51:13;;;;;;;8.77;3.60;;;23.70;38.00;;;;;;5063592;28;20199;-69
2023/01/28 01:53:44;;;;;;;7.83;3.37;;;23.70;38.00;;;;;;5064170;28;20214;-67
2023/01/28 01:56:17;;;;;;;8.07;3.60;;;23.70;38.00;;;;;;5066472;28;20205;-68
2023/01/28 01:58:47;;;;;;;11.77;4.27;;;23.70;38.00;;;;;;5063536;28;20202;-67
2023/01/28 02:01:14;;;;;;;8.63;3.43;;;23.70;38.00;;;;;;5062613;28;20872;-67
2023/01/28 02:03:47;;;;;;;9.80;3.77;;;23.70;38.00;;;;;;5066283;28;20209;-67
2023/01/28 02:06:14;;;;;;;23.10;7.50;;;23.70;38.00;;;;;;5062678;28;20215;-67
2023/01/28 02:08:43;;;;;;;7.73;3.33;;;23.70;38.00;;;;;;5065359;28;20664;-67
2023/01/28 02:11:14;;;;;;;17.63;5.97;;;23.70;38.00;;;;;;5060567;28;20205;-69
2023/01/28 02:13:44;;;;;;;12.07;4.63;;;23.70;38.00;;;;;;5065058;28;20207;-69
2023/01/28 02:16:12;;;;;;;13.97;5.20;;;23.70;38.00;;;;;;5062192;28;20203;-66
2023/01/28 02:18:39;;;;;;;7.57;3.33;;;23.70;38.00;;;;;;5059919;28;20670;-70
2023/01/28 02:21:43;;;;;;;17.00;6.07;;;23.70;38.00;;;;;;5059614;28;20203;-72
2023/01/28 02:24:28;;;;;;;8.23;3.60;;;23.70;38.00;;;;;;5064081;28;20227;-67
2023/01/28 02:27:27;;;;;;;7.83;3.33;;;23.70;38.00;;;;;;5066950;28;20206;-73
2023/01/28 02:30:01;;;;;;;7.07;3.13;;;23.70;38.00;;;;;;5032539;28;20205;-70
2023/01/28 02:32:36;;;;;;;8.03;3.37;;;23.70;38.00;;;;;;5067320;28;20209;-71
2023/01/28 02:35:14;;;;;;;6.83;3.20;;;23.70;38.00;;;;;;5067408;28;20203;-67
2023/01/28 02:37:46;;;;;;;12.70;4.60;;;23.70;38.00;;;;;;5070005;28;20657;-69
2023/01/28 02:40:18;;;;;;;7.50;3.53;;;23.70;38.00;;;;;;5069352;28;20674;-67
2023/01/28 02:42:45;;;;;;;7.33;3.37;;;23.70;38.00;;;;;;5070943;28;20281;-68
2023/01/28 02:45:20;;;;;;;15.43;5.50;;;23.70;38.00;;;;;;5070365;28;20598;-67
2023/01/28 02:47:58;;;;;;;8.07;3.47;;;23.70;38.00;;;;;;5068852;28;20216;-67
2023/01/28 02:50:31;;;;;;;7.87;3.30;;;23.70;38.00;;;;;;5068347;28;20352;-66
2023/01/28 02:56:02;;;;;;;7.43;3.43;;;23.70;38.00;;;;;;5063595;28;20238;-70
2023/01/28 02:58:35;;;;;;;4.70;2.43;;;23.70;38.00;;;;;;5068896;28;20652;-67
2023/01/28 03:01:13;;;;;;;5.77;2.60;;;23.70;38.00;;;;;;5061794;28;20673;-67
2023/01/28 03:03:50;;;;;;;6.67;3.10;;;23.70;38.00;;;;;;5069704;28;20662;-69
2023/01/28 03:06:21;;;;;;;6.03;3.00;;;23.70;38.00;;;;;;5062923;28;20231;-68
2023/01/28 03:36:50;;;;;;;6.80;3.23;;;23.70;38.00;;;;;;5067414;28;20292;-66
2023/01/28 03:39:19;;;;;;;8.23;3.40;;;23.70;38.00;;;;;;5068031;28;20686;-66
2023/01/28 03:41:57;;;;;;;7.80;3.17;;;23.70;38.00;;;;;;5068326;28;20200;-67
2023/01/28 03:47:10;;;;;;;8.40;3.43;;;23.70;38.00;;;;;;5065741;28;20273;-68
2023/01/28 03:49:40;;;;;;;7.30;3.27;;;23.70;38.00;;;;;;5069875;28;20687;-66
2023/01/28 03:52:07;;;;;;;6.93;3.07;;;23.70;38.00;;;;;;5065440;28;20212;-66
2023/01/28 03:54:34;;;;;;;10.97;4.27;;;23.70;38.00;;;;;;5062786;28;20889;-66
2023/01/28 03:57:01;;;;;;;6.90;3.17;;;23.70;38.00;;;;;;5064591;28;20210;-67
2023/01/28 03:59:28;;;;;;;13.17;4.80;;;23.70;38.00;;;;;;5066571;28;20306;-72
2023/01/28 04:01:55;;;;;;;7.23;3.20;;;23.70;38.00;;;;;;5065662;28;20209;-76
2023/01/28 04:04:25;;;;;;;8.37;3.40;;;23.70;38.00;;;;;;5067362;28;20195;-67
2023/01/28 04:06:54;;;;;;;7.43;3.30;;;23.70;38.00;;;;;;5064992;28;20286;-67
2023/01/28 04:09:21;;;;;;;7.27;3.23;;;23.70;38.00;;;;;;5061778;28;20560;-68
2023/01/28 04:11:49;;;;;;;8.23;3.50;;;23.70;38.00;;;;;;5064315;28;20205;-67
2023/01/28 04:14:16;;;;;;;12.03;4.73;;;23.80;38.10;;;;;;5064985;28;20230;-67
2023/01/28 04:16:43;;;;;;;13.13;4.97;;;23.70;38.00;;;;;;5063636;28;20226;-67
2023/01/28 04:19:11;;;;;;;7.23;3.23;;;23.70;38.00;;;;;;5064003;28;20208;-72
2023/01/28 04:21:38;;;;;;;13.53;4.93;;;23.70;38.00;;;;;;5048999;28;20589;-75
2023/01/28 04:24:07;;;;;;;5.90;2.93;;;23.70;38.00;;;;;;5069097;28;20196;-73
2023/01/28 04:26:34;;;;;;;8.20;3.60;;;23.70;38.00;;;;;;5069124;28;20730;-69
2023/01/28 04:29:01;;;;;;;6.77;3.17;;;23.70;38.00;;;;;;5069371;28;20192;-75
2023/01/28 04:31:28;;;;;;;8.60;3.60;;;23.70;38.00;;;;;;5068985;28;20217;-76
2023/01/28 04:33:55;;;;;;;6.47;2.90;;;23.70;38.00;;;;;;5068002;28;20285;-73
2023/01/28 04:36:21;;;;;;;7.30;3.30;;;23.80;38.10;;;;;;5056228;28;20203;-77
2023/01/28 04:38:48;;;;;;;7.20;3.23;;;23.70;38.00;;;;;;5067119;28;20567;-78
2023/01/28 04:41:17;;;;;;;7.33;3.30;;;23.70;38.00;;;;;;5067390;28;21046;-74
2023/01/28 04:43:43;;;;;;;8.47;3.67;;;23.70;38.00;;;;;;5066378;28;20780;-75
2023/01/28 04:46:10;;;;;;;8.07;3.60;;;23.70;38.00;;;;;;5067749;28;20686;-66
2023/01/28 04:48:38;;;;;;;7.83;3.53;;;23.70;38.00;;;;;;5067854;28;20205;-76
2023/01/28 04:51:05;;;;;;;7.47;3.30;;;23.70;37.90;;;;;;5067448;28;20199;-69
2023/01/28 04:53:32;;;;;;;15.07;5.53;;;23.80;38.00;;;;;;5056785;28;20583;-75
2023/01/28 04:55:59;;;;;;;8.40;3.43;;;23.80;38.00;;;;;;5063256;28;20210;-75
2023/01/28 04:58:27;;;;;;;7.67;3.40;;;23.80;38.00;;;;;;5058966;28;20206;-70
2023/01/28 05:00:55;;;;;;;7.23;3.27;;;23.80;38.00;;;;;;5065975;28;20540;-77
2023/01/28 05:03:23;;;;;;;7.17;3.17;;;23.80;38.00;;;;;;5066165;28;20290;-76
2023/01/28 05:05:50;;;;;;;8.03;3.37;;;23.70;37.90;;;;;;5061639;28;20319;-78
2023/01/28 05:08:17;;;;;;;10.30;4.03;;;23.70;37.80;;;;;;5067059;28;20199;-76
2023/01/28 05:10:44;;;;;;;7.97;3.37;;;23.70;37.80;;;;;;5067134;28;20273;-77
2023/01/28 05:13:11;;;;;;;11.10;4.57;;;23.70;37.80;;;;;;5061787;28;20731;-67
2023/01/28 05:15:39;;;;;;;9.80;3.87;;;23.70;37.80;;;;;;5061851;28;20202;-67
2023/01/28 05:18:06;;;;;;;14.60;5.37;;;23.70;37.90;;;;;;5064652;28;20563;-68
2023/01/28 05:20:33;;;;;;;11.37;4.47;;;23.70;37.80;;;;;;5062420;28;20218;-69
2023/01/28 05:23:00;;;;;;;13.13;5.27;;;23.70;37.80;;;;;;5060233;28;20191;-67
2023/01/28 05:25:27;;;;;;;9.20;3.77;;;23.70;37.80;;;;;;5063159;28;20603;-67
2023/01/28 05:27:54;;;;;;;7.57;3.47;;;23.70;37.90;;;;;;5066256;28;20206;-65
2023/01/28 05:30:21;;;;;;;14.27;5.30;;;23.70;37.90;;;;;;5065952;28;20214;-70
2023/01/28 05:32:54;;;;;;;9.57;3.60;;;23.70;37.70;;;;;;5064265;28;20567;-66
2023/01/28 05:35:21;;;;;;;7.33;3.30;;;23.70;37.70;;;;;;5066525;28;20301;-65
2023/01/28 05:37:48;;;;;;;13.80;5.07;;;23.70;37.80;;;;;;5065342;28;20206;-65
2023/01/28 05:40:16;;;;;;;7.00;3.33;;;23.70;37.80;;;;;;5066640;28;20559;-66
2023/01/28 05:42:43;;;;;;;8.83;3.60;;;23.60;37.80;;;;;;5064411;28;20203;-70
2023/01/28 05:45:10;;;;;;;6.77;3.20;;;23.60;37.80;;;;;;5064950;28;20222;-65
2023/01/28 05:47:38;;;;;;;7.43;3.30;;;23.60;37.90;;;;;;5066517;28;20218;-66
2023/01/28 05:50:08;;;;;;;8.70;3.60;;;23.60;37.90;;;;;;5067212;28;20199;-65
2023/01/28 05:52:35;;;;;;;11.67;4.67;;;23.60;37.90;;;;;;5056853;28;20722;-65
2023/01/28 05:55:03;;;;;;;10.73;4.17;;;23.60;37.90;;;;;;5064050;28;20302;-67
2023/01/28 05:57:30;;;;;;;10.33;4.23;;;23.60;37.90;;;;;;5065900;28;20199;-65
2023/01/28 05:59:57;;;;;;;11.03;4.40;;;23.60;38.00;;;;;;5060428;28;20217;-70
2023/01/28 06:02:23;;;;;;;9.07;4.00;;;23.60;38.00;;;;;;5062363;28;20211;-67
2023/01/28 06:04:50;;;;;;;7.53;3.37;;;23.60;37.90;;;;;;5066109;28;20209;-65
2023/01/28 06:07:19;;;;;;;15.43;5.60;;;23.60;37.90;;;;;;5062325;28;20345;-66
2023/01/28 06:09:47;;;;;;;7.77;3.77;;;23.70;38.60;;;;;;5064328;28;20195;-71
2023/01/28 06:12:14;;;;;;;10.80;4.53;;;23.70;38.00;;;;;;5062704;28;20932;-67
2023/01/28 06:14:41;;;;;;;14.63;5.57;;;23.70;38.00;;;;;;5062854;28;20661;-66
2023/01/28 06:17:09;;;;;;;6.90;3.23;;;23.70;38.00;;;;;;5061933;28;20290;-67
2023/01/28 06:19:35;;;;;;;10.00;4.27;;;23.80;38.10;;;;;;5057237;28;20204;-65
2023/01/28 06:22:02;;;;;;;14.53;5.63;;;23.80;38.10;;;;;;5065207;28;20285;-65
2023/01/28 06:24:31;;;;;;;11.73;4.57;;;23.80;38.10;;;;;;5064612;28;20199;-66
2023/01/28 06:26:58;;;;;;;8.20;3.83;;;23.80;38.10;;;;;;5065560;28;20230;-67
2023/01/28 06:29:25;;;;;;;8.57;3.67;;;23.80;38.10;;;;;;5064965;28;20282;-65
2023/01/28 06:31:52;;;;;;;8.33;3.70;;;23.90;38.20;;;;;;5066235;28;20199;-67
2023/01/28 06:34:19;;;;;;;8.60;3.90;;;23.90;38.20;;;;;;5066722;28;20609;-67
2023/01/28 06:36:46;;;;;;;7.53;3.73;;;23.90;38.20;;;;;;5062508;28;20208;-67
2023/01/28 06:39:12;;;;;;;10.07;4.47;;;23.90;38.10;;;;;;5047063;28;20279;-68
2023/01/28 06:41:41;;;;;;;6.70;3.60;;;23.90;38.10;;;;;;5065798;28;20599;-67
2023/01/28 06:44:08;;;;;;;6.60;3.40;;;24.00;38.10;;;;;;5065767;28;20286;-65
2023/01/28 06:46:35;;;;;;;6.20;3.27;;;24.00;38.10;;;;;;5066635;28;20728;-69
2023/01/28 06:49:02;;;;;;;8.80;3.90;;;24.00;38.10;;;;;;5067256;28;20195;-65
2023/01/28 06:51:29;;;;;;;7.83;3.87;;;24.00;38.10;;;;;;5065938;28;20207;-65
2023/01/28 06:53:56;;;;;;;13.03;5.10;;;24.00;38.00;;;;;;5061907;28;20234;-70
2023/01/28 06:56:23;;;;;;;14.13;4.00;;;24.10;38.10;;;;;;5064609;28;20203;-66
2023/01/28 06:58:51;;;;;;;6.73;3.23;;;24.00;37.90;;;;;;5066573;28;20215;-66
2023/01/28 07:01:18;;;;;;;7.53;3.60;;;24.10;38.00;;;;;;5066611;28;20204;-65
2023/01/28 07:03:45;;;;;;;15.73;6.03;;;24.00;38.00;;;;;;5065261;28;20204;-65
2023/01/28 07:06:12;;;;;;;7.23;3.50;;;24.00;38.00;;;;;;5064352;28;20251;-64
2023/01/28 07:08:40;;;;;;;8.17;3.77;;;24.10;38.10;;;;;;5061004;28;20208;-66
2023/01/28 07:11:07;;;;;;;19.57;7.07;;;24.10;38.10;;;;;;5058582;28;20273;-65
2023/01/28 07:13:34;;;;;;;10.97;4.23;;;24.00;38.30;;;;;;5063249;28;20792;-71
2023/01/28 07:16:02;;;;;;;8.03;4.07;;;24.10;40.00;;;;;;5065008;28;20278;-65
2023/01/28 07:18:29;;;;;;;15.37;5.87;;;24.00;41.10;;;;;;5064252;28;20686;-65
2023/01/28 07:20:56;;;;;;;10.83;4.80;;;24.10;41.50;;;;;;5064033;28;20208;-68
2023/01/28 07:23:23;;;;;;;12.27;5.33;;;24.10;41.50;;;;;;5064897;28;21086;-65
2023/01/28 07:25:51;;;;;;;21.07;6.60;;;24.10;41.60;;;;;;5068436;28;20223;-65
2023/01/28 07:28:20;;;;;;;23.63;7.47;;;24.10;41.50;;;;;;5066265;28;20206;-65
2023/01/28 07:30:49;;;;;;;20.20;6.77;;;24.10;41.30;;;;;;5069105;28;20198;-68
2023/01/28 07:33:18;;;;;;;20.20;6.13;;;24.10;41.30;;;;;;5068772;28;20278;-64
2023/01/28 07:35:46;;;;;;;13.67;5.43;;;24.20;41.40;;;;;;5066966;28;20207;-64
2023/01/28 07:38:13;;;;;;;18.80;6.47;;;24.20;41.20;;;;;;5065461;28;20663;-67
2023/01/28 07:40:41;;;;;;;20.40;6.77;;;24.20;40.90;;;;;;5068435;28;20199;-65
2023/01/28 07:43:08;;;;;;;16.07;6.20;;;24.20;40.80;;;;;;5062534;28;20207;-66
2023/01/28 07:45:35;;;;;;;13.93;5.00;;;24.30;40.90;;;;;;5063786;28;20240;-63
2023/01/28 07:48:04;;;;;;;11.70;4.97;;;24.30;40.80;;;;;;5067313;28;20192;-69
2023/01/28 07:50:35;;;;;;;11.50;4.97;;;24.30;40.60;;;;;;5068313;28;20210;-64
2023/01/28 07:53:04;;;;;;;20.73;7.40;;;24.30;40.50;;;;;;5067033;28;20598;-63
2023/01/28 07:55:31;;;;;;;9.70;4.57;;;24.30;40.30;;;;;;5069044;28;20199;-63
2023/01/28 07:57:59;;;;;;;33.93;6.40;;;24.30;40.10;;;;;;5068075;28;20206;-64
2023/01/28 08:00:28;;;;;;;22.73;7.90;;;24.30;40.10;;;;;;5066708;28;20566;-65
2023/01/28 08:02:57;;;;;;;9.87;4.43;;;24.30;40.10;;;;;;5065704;28;20200;-64
2023/01/28 08:05:25;;;;;;;21.03;7.67;;;24.30;40.10;;;;;;5064386;28;20200;-69
2023/01/28 08:07:54;;;;;;;13.37;5.43;;;24.30;40.00;;;;;;5059389;28;20215;-64
2023/01/28 08:10:21;;;;;;;12.57;4.60;;;24.20;40.00;;;;;;5061138;28;20207;-64
2023/01/28 08:12:54;;;;;;;9.10;4.50;;;24.20;40.00;;;;;;5068042;28;20222;-65
2023/01/28 08:15:22;;;;;;;16.07;6.03;;;24.20;39.90;;;;;;5068123;28;20203;-64
2023/01/28 08:17:49;;;;;;;12.40;5.00;;;24.20;39.80;;;;;;5067751;28;20203;-75
2023/01/28 08:20:17;;;;;;;10.33;4.77;;;24.10;39.60;;;;;;5066736;28;20212;-68
2023/01/28 08:22:43;;;;;;;8.93;4.03;;;24.10;39.60;;;;;;5066819;28;20204;-71
2023/01/28 08:25:12;;;;;;;8.30;4.10;;;24.10;39.70;;;;;;5069651;28;20226;-64
2023/01/28 08:27:39;;;;;;;9.57;4.13;;;24.10;39.70;;;;;;5068588;28;20219;-66
2023/01/28 08:30:08;;;;;;;9.67;4.47;;;24.10;39.70;;;;;;5069869;28;20199;-66
2023/01/28 08:32:35;;;;;;;14.90;6.07;;;24.10;39.70;;;;;;5063714;28;20318;-67
2023/01/28 08:35:02;;;;;;;8.10;4.07;;;24.00;40.20;;;;;;5062685;28;20198;-72
2023/01/28 08:37:29;;;;;;;12.10;5.17;;;24.00;39.70;;;;;;5067581;28;20668;-65
2023/01/28 08:39:56;;;;;;;10.00;4.30;;;23.90;39.60;;;;;;5060368;28;20298;-64
2023/01/28 08:42:24;;;;;;;9.23;4.40;;;24.00;39.60;;;;;;5068649;28;20221;-66
2023/01/28 08:44:51;;;;;;;9.03;4.30;;;23.90;39.60;;;;;;5068315;28;20195;-68
2023/01/28 08:47:18;;;;;;;8.47;4.07;;;23.90;39.60;;;;;;5068062;28;20299;-73
2023/01/28 08:49:44;;;;;;;14.57;5.47;;;23.90;39.60;;;;;;5068188;28;20229;-65
2023/01/28 08:52:11;;;;;;;11.13;4.50;;;23.90;39.60;;;;;;5065403;28;20212;-65
2023/01/28 08:54:38;;;;;;;12.63;5.03;;;23.90;39.60;;;;;;5068455;28;20224;-65
2023/01/28 08:57:05;;;;;;;13.17;5.43;;;23.90;39.60;;;;;;5066778;28;20229;-67
2023/01/28 08:59:33;;;;;;;10.70;4.23;;;23.90;39.50;;;;;;5068276;28;20249;-65
2023/01/28 09:02:00;;;;;;;11.63;4.87;;;23.90;39.50;;;;;;5067323;28;20205;-68
2023/01/28 09:04:27;;;;;;;13.30;5.20;;;23.90;39.50;;;;;;5068078;28;20550;-65
2023/01/28 09:06:54;;;;;;;9.27;4.50;;;24.00;39.50;;;;;;5066884;28;20222;-66
2023/01/28 09:09:21;;;;;;;9.03;3.97;;;24.00;39.50;;;;;;5062386;28;20566;-65
2023/01/28 09:11:48;;;;;;;10.63;4.50;;;24.00;39.40;;;;;;5059539;28;20287;-64
2023/01/28 09:14:15;;;;;;;9.13;4.33;;;24.00;39.40;;;;;;5064916;28;20205;-64
2023/01/28 09:16:43;;;;;;;7.73;3.90;;;24.00;39.30;;;;;;5067461;28;20202;-65
2023/01/28 09:19:11;;;;;;;13.27;5.17;;;24.00;39.30;;;;;;5067075;28;20290;-65
2023/01/28 09:21:39;;;;;;;8.67;4.17;;;24.00;39.30;;;;;;5066990;28;20223;-64
2023/01/28 09:24:10;;;;;;;7.87;3.33;;;24.00;39.30;;;;;;5066777;28;20765;-65
2023/01/28 09:26:37;;;;;;;9.63;4.67;;;24.00;39.30;;;;;;5067803;28;20583;-64
2023/01/28 09:29:04;;;;;;;8.37;4.03;;;24.00;39.20;;;;;;5065697;28;20203;-64
2023/01/28 09:31:30;;;;;;;9.30;4.13;;;24.00;39.10;;;;;;5067675;28;20294;-65
2023/01/28 09:33:59;;;;;;;11.47;4.17;;;24.00;39.10;;;;;;5067264;28;20203;-65
2023/01/28 09:36:26;;;;;;;7.53;3.80;;;24.00;39.10;;;;;;5067967;28;20204;-65
2023/01/28 09:38:53;;;;;;;7.77;3.80;;;24.00;39.10;;;;;;5067757;28;20210;-65
2023/01/28 09:41:26;;;;;;;8.20;4.00;;;24.00;39.10;;;;;;5064934;28;20203;-73
2023/01/28 09:44:25;;;;;;;8.60;4.17;;;24.00;39.00;;;;;;5051499;28;20199;-72
2023/01/28 09:46:52;;;;;;;9.47;4.13;;;24.00;39.00;;;;;;5052249;28;20207;-74
2023/01/28 09:49:32;;;;;;;8.53;4.03;;;24.10;39.10;;;;;;5065887;28;20943;-76
2023/01/28 09:51:59;;;;;;;9.30;4.30;;;24.00;38.90;;;;;;5066470;28;20327;-69
2023/01/28 09:54:34;;;;;;;10.37;4.67;;;24.10;39.00;;;;;;5064621;28;20230;-79
2023/01/28 09:57:06;;;;;;;8.87;3.97;;;24.10;38.90;;;;;;5067169;28;20206;-79
2023/01/28 09:59:35;;;;;;;7.30;3.83;;;24.10;38.90;;;;;;5059440;28;20262;-79
2023/01/28 10:02:16;;;;;;;9.47;4.20;;;24.10;38.80;;;;;;5066124;28;20196;-70
2023/01/28 10:04:55;;;;;;;8.40;3.83;;;24.10;38.80;;;;;;5053072;28;20200;-71
2023/01/28 10:07:31;;;;;;;11.40;5.10;;;24.10;38.70;;;;;;5061439;28;20309;-79
2023/01/28 10:10:04;;;;;;;8.73;4.07;;;24.10;38.60;;;;;;5067106;28;20208;-67
2023/01/28 10:13:02;;;;;;;16.47;6.13;;;24.10;38.60;;;;;;5062136;28;20282;-71
2023/01/28 10:16:05;;;;;;;9.77;4.40;;;24.10;38.30;;;;;;5062209;28;20535;-83
2023/01/28 10:18:38;;;;;;;8.70;4.17;;;24.10;38.40;;;;;;5053219;28;20211;-64
2023/01/28 10:21:15;;;;;;;10.70;4.53;;;24.00;38.40;;;;;;5049366;28;20243;-71
2023/01/28 10:23:50;;;;;;;9.17;4.03;;;24.00;38.40;;;;;;5061758;28;20200;-64
2023/01/28 10:26:24;;;;;;;8.63;4.00;;;24.00;38.40;;;;;;5064978;28;20207;-66
2023/01/28 10:28:56;;;;;;;7.63;3.97;;;23.90;38.40;;;;;;5067026;28;20206;-69
2023/01/28 10:31:27;;;;;;;12.87;5.23;;;23.90;38.40;;;;;;5066639;28;20563;-66
2023/01/28 10:33:54;;;;;;;8.57;4.17;;;23.90;38.40;;;;;;5067180;28;20195;-66
2023/01/28 10:36:23;;;;;;;14.97;6.37;;;23.90;38.50;;;;;;5064356;28;20683;-65
2023/01/28 10:38:51;;;;;;;7.87;3.93;;;23.80;38.20;;;;;;5065698;28;20577;-72
2023/01/28 10:41:21;;;;;;;9.67;4.37;;;23.80;38.20;;;;;;5066561;28;20195;-68
2023/01/28 10:43:49;;;;;;;7.53;3.67;;;23.70;38.10;;;;;;5062580;28;20206;-67
2023/01/28 10:46:19;;;;;;;10.07;4.27;;;23.70;38.30;;;;;;5065261;28;20206;-67
2023/01/28 10:48:53;;;;;;;9.10;4.27;;;23.70;38.40;;;;;;5066228;28;20215;-68
2023/01/28 10:51:32;;;;;;;8.43;3.87;;;23.70;38.50;;;;;;5050481;28;20289;-68
2023/01/28 10:53:59;;;;;;;14.07;5.70;;;23.70;38.50;;;;;;5063612;28;20230;-64
2023/01/28 10:56:28;;;;;;;9.77;4.23;;;23.70;38.50;;;;;;5061813;28;20199;-65
2023/01/28 10:58:59;;;;;;;7.27;3.57;;;23.70;38.50;;;;;;5067601;28;20191;-70
2023/01/28 11:01:42;;;;;;;9.33;4.50;;;23.70;38.50;;;;;;5067969;28;20227;-71
2023/01/28 11:04:18;;;;;;;17.93;6.43;;;23.70;38.40;;;;;;5067825;28;20203;-71
2023/01/28 11:06:58;;;;;;;10.07;4.10;;;23.70;38.40;;;;;;5065783;28;20198;-65
2023/01/28 11:09:27;;;;;;;17.43;6.37;;;23.70;38.40;;;;;;5059967;28;20205;-65
2023/01/28 11:11:54;;;;;;;7.80;3.53;;;23.70;38.50;;;;;;5063742;28;20206;-69
2023/01/28 11:14:23;;;;;;;9.00;3.90;;;23.70;38.50;;;;;;5068362;28;20207;-66
2023/01/28 11:16:52;;;;;;;7.67;3.50;;;23.70;38.50;;;;;;5069089;28;20202;-61
2023/01/28 11:19:20;;;;;;;7.97;3.70;;;23.80;38.60;;;;;;5063005;28;20196;-68
2023/01/28 11:21:56;;;;;;;10.57;4.07;;;23.80;38.60;;;;;;5070015;28;20211;-64
2023/01/28 11:24:27;;;;;;;9.77;4.33;;;23.80;38.50;;;;;;5070029;28;20203;-73
2023/01/28 11:26:57;;;;;;;10.73;4.37;;;23.80;38.50;;;;;;5069906;28;20199;-65
2023/01/28 11:29:27;;;;;;;12.17;4.97;;;23.80;38.40;;;;;;5070090;28;20203;-65
2023/01/28 11:31:55;;;;;;;7.43;3.77;;;23.80;38.40;;;;;;5070539;28;20217;-67
2023/01/28 11:34:27;;;;;;;9.50;4.20;;;23.80;38.30;;;;;;5069430;28;20222;-72
2023/01/28 11:37:04;;;;;;;8.27;4.10;;;23.80;38.20;;;;;;5067421;28;20206;-75
2023/01/28 11:39:31;;;;;;;8.57;3.70;;;23.80;38.20;;;;;;5070408;28;20205;-68
2023/01/28 11:42:12;;;;;;;7.63;3.60;;;23.80;38.30;;;;;;5069854;28;20752;-69
2023/01/28 11:44:40;;;;;;;7.87;3.57;;;23.70;38.10;;;;;;5069763;28;20210;-75
2023/01/28 11:47:32;;;;;;;6.93;3.33;;;23.70;38.10;;;;;;5069705;28;20226;-70
2023/01/28 11:50:18;;;;;;;14.10;5.57;;;23.80;38.20;;;;;;5069200;28;20199;-77
2023/01/28 11:52:57;;;;;;;8.67;3.90;;;23.70;38.10;;;;;;5069580;28;20223;-66
2023/01/28 11:55:40;;;;;;;8.77;3.90;;;23.70;38.10;;;;;;5069742;28;20574;-70
2023/01/28 11:58:18;;;;;;;9.00;4.07;;;23.70;38.10;;;;;;5069913;28;20194;-68
2023/01/28 12:00:52;;;;;;;7.17;3.53;;;23.60;38.10;;;;;;5069524;28;20566;-73
2023/01/28 12:03:41;;;;;;;6.97;3.40;;;23.60;38.20;;;;;;5069608;28;20207;-72
2023/01/28 12:06:38;;;;;;;6.80;3.30;;;23.60;38.20;;;;;;5068098;28;20563;-74
2023/01/28 12:09:18;;;;;;;6.43;3.33;;;23.60;38.20;;;;;;5056076;28;20593;-73
2023/01/28 12:12:12;;;;;;;7.13;3.43;;;23.60;38.20;;;;;;5069420;28;20298;-71
2023/01/28 12:15:01;;;;;;;8.60;3.57;;;23.60;38.30;;;;;;5069218;28;20204;-68
2023/01/28 12:17:38;;;;;;;10.50;4.23;;;23.60;38.20;;;;;;5055997;28;20214;-77
2023/01/28 12:20:15;;;;;;;11.40;4.63;;;23.70;38.30;;;;;;5068597;28;20548;-71
2023/01/28 12:23:00;;;;;;;8.40;3.73;;;23.70;38.30;;;;;;5069289;28;20644;-69
2023/01/28 12:25:40;;;;;;;9.30;4.03;;;23.80;38.40;;;;;;5064342;28;20199;-67
2023/01/28 12:28:18;;;;;;;8.50;3.70;;;23.80;38.40;;;;;;5068775;28;20391;-69
2023/01/28 12:31:24;;;;;;;5.80;3.03;;;23.80;38.40;;;;;;5069316;28;20204;-65
2023/01/28 12:34:11;;;;;;;8.67;3.63;;;23.90;38.40;;;;;;5068055;28;20207;-65
2023/01/28 12:36:51;;;;;;;8.73;4.00;;;24.00;38.40;;;;;;5065512;28;20199;-79
2023/01/28 12:39:32;;;;;;;8.20;3.50;;;24.10;38.40;;;;;;5069355;28;20199;-77
2023/01/28 12:42:09;;;;;;;12.77;4.90;;;24.10;38.30;;;;;;5067423;28;20565;-79
2023/01/28 12:44:40;;;;;;;7.53;3.50;;;24.20;38.40;;;;;;5069028;28;20236;-77
2023/01/28 12:47:11;;;;;;;8.33;3.63;;;24.30;38.50;;;;;;5068832;28;20560;-73
2023/01/28 12:49:43;;;;;;;8.83;4.03;;;24.40;38.50;;;;;;5068412;28;20205;-79
2023/01/28 12:52:15;;;;;;;6.60;3.13;;;24.40;38.40;;;;;;5068810;28;20227;-75
2023/01/28 12:54:53;;;;;;;9.13;3.97;;;24.40;38.30;;;;;;5066622;28;20192;-80
2023/01/28 12:57:27;;;;;;;6.43;3.07;;;24.50;38.30;;;;;;5067492;28;20205;-75
2023/01/28 13:00:03;;;;;;;12.57;5.07;;;24.50;38.30;;;;;;5067753;28;20722;-73
2023/01/28 13:02:34;;;;;;;8.47;3.67;;;24.70;38.40;;;;;;5068170;28;20215;-70
2023/01/28 13:05:08;;;;;;;7.03;3.27;;;24.70;38.30;;;;;;5064029;28;20211;-68
2023/01/28 13:07:41;;;;;;;8.90;3.70;;;24.70;38.10;;;;;;5068165;28;20312;-67
2023/01/28 13:10:17;;;;;;;8.77;4.00;;;24.80;38.10;;;;;;5068416;28;20206;-65
2023/01/28 13:12:47;;;;;;;8.70;4.00;;;24.80;38.10;;;;;;5067813;28;20641;-66
2023/01/28 13:15:16;;;;;;;8.40;3.53;;;24.80;38.10;;;;;;5067004;28;20206;-67
2023/01/28 13:17:55;;;;;;;8.57;3.67;;;24.80;38.10;;;;;;5068091;28;20301;-69
2023/01/28 13:20:35;;;;;;;10.63;4.43;;;24.80;38.00;;;;;;5067072;28;20209;-65
2023/01/28 13:23:03;;;;;;;6.73;3.27;;;24.70;37.90;;;;;;5067965;28;20203;-68
2023/01/28 13:25:34;;;;;;;8.43;3.70;;;24.70;38.00;;;;;;5067772;28;20206;-65
2023/01/28 13:28:04;;;;;;;7.03;3.07;;;24.70;38.00;;;;;;5068088;28;20215;-67
2023/01/28 13:30:32;;;;;;;8.27;3.63;;;24.60;38.00;;;;;;5067265;28;20660;-65
2023/01/28 13:33:02;;;;;;;6.43;3.13;;;24.60;38.00;;;;;;5066611;28;20306;-65
2023/01/28 13:35:33;;;;;;;6.37;3.03;;;24.60;38.00;;;;;;5068003;28;20729;-70